createdAt,value
2018-11-11T00:00:15.269Z,14.63
2018-11-11T00:02:44.555Z,16.03
2018-11-11T00:05:13.431Z,20.17
2018-11-11T00:07:42.263Z,20.70
2018-11-11T00:10:11.135Z,23.30
2018-11-11T00:12:40.013Z,20.03
2018-11-11T00:15:11.831Z,20.00
2018-11-11T00:17:42.042Z,21.10
2018-11-11T00:20:11.444Z,27.97
2018-11-11T00:22:40.752Z,27.00
2018-11-11T00:25:09.743Z,26.63
2018-11-11T00:27:39.131Z,25.67
2018-11-11T00:30:14.116Z,30.93
2018-11-11T00:32:43.010Z,24.47
2018-11-11T00:35:11.920Z,23.20
2018-11-11T00:37:40.939Z,27.40
2018-11-11T00:40:11.828Z,28.00
2018-11-11T00:42:40.735Z,21.90
2018-11-11T00:45:10.651Z,23.40
2018-11-11T00:47:39.492Z,30.13
2018-11-11T00:50:09.687Z,27.47
2018-11-11T00:52:38.560Z,23.83
2018-11-11T00:55:10.691Z,21.53
2018-11-11T00:57:39.858Z,22.97
2018-11-11T01:00:13.915Z,22.80
2018-11-11T01:02:44.082Z,25.83
2018-11-11T01:05:13.491Z,21.73
2018-11-11T01:07:42.908Z,21.57
2018-11-11T01:10:13.928Z,20.03
2018-11-11T01:12:43.338Z,21.80
2018-11-11T01:15:13.447Z,26.63
2018-11-11T01:17:42.491Z,20.00
2018-11-11T01:20:13.526Z,20.63
2018-11-11T01:22:42.767Z,19.57
2018-11-11T01:25:13.183Z,19.40
2018-11-11T01:27:42.312Z,20.23
2018-11-11T01:30:11.230Z,18.13
2018-11-11T01:32:40.082Z,24.23
2018-11-11T01:35:11.142Z,20.13
2018-11-11T01:37:40.543Z,23.00
2018-11-11T01:40:09.559Z,17.10
2018-11-11T01:42:38.452Z,21.97
2018-11-11T01:45:12.666Z,19.20
2018-11-11T01:47:41.576Z,16.27
2018-11-11T01:50:11.355Z,23.00
2018-11-11T01:52:40.450Z,19.40
2018-11-11T01:55:10.817Z,19.90
2018-11-11T01:57:39.855Z,21.50
2018-11-11T02:00:12.191Z,20.93
2018-11-11T02:02:41.323Z,18.67
2018-11-11T02:05:11.338Z,19.80
2018-11-11T02:07:41.059Z,20.90
2018-11-11T02:10:10.271Z,23.47
2018-11-11T02:12:40.789Z,22.83
2018-11-11T02:15:11.007Z,18.87
2018-11-11T02:17:39.903Z,18.80
2018-11-11T02:20:12.735Z,21.03
2018-11-11T02:22:42.089Z,18.30
2018-11-11T02:25:11.272Z,19.23
2018-11-11T02:27:40.155Z,19.93
2018-11-11T02:30:21.352Z,18.13
2018-11-11T02:32:50.458Z,18.80
2018-11-11T02:35:19.307Z,19.23
2018-11-11T02:37:48.172Z,18.80
2018-11-11T02:40:18.350Z,21.40
2018-11-11T02:42:47.741Z,19.13
2018-11-11T02:45:17.668Z,19.67
2018-11-11T02:47:46.604Z,20.87
2018-11-11T02:50:17.389Z,20.23
2018-11-11T02:52:46.583Z,19.43
2018-11-11T02:55:16.017Z,18.63
2018-11-11T02:57:45.479Z,18.97
2018-11-11T03:00:17.675Z,17.83
2018-11-11T03:02:46.962Z,16.10
2018-11-11T03:05:16.673Z,17.57
2018-11-11T03:07:45.549Z,21.43
2018-11-11T03:10:15.268Z,17.73
2018-11-11T03:12:44.826Z,17.83
2018-11-11T03:15:14.270Z,19.40
2018-11-11T03:17:43.180Z,21.50
2018-11-11T03:20:12.567Z,17.20
2018-11-11T03:22:41.418Z,21.63
2018-11-11T03:25:11.815Z,19.47
2018-11-11T03:27:41.194Z,18.57
2018-11-11T03:30:12.122Z,23.20
2018-11-11T03:32:41.079Z,20.77
2018-11-11T03:35:11.456Z,18.83
2018-11-11T03:37:40.847Z,17.27
2018-11-11T03:40:12.732Z,16.90
2018-11-11T03:42:41.905Z,20.60
2018-11-11T03:45:12.225Z,21.33
2018-11-11T03:47:41.831Z,18.97
2018-11-11T03:50:11.156Z,20.03
2018-11-11T03:52:40.226Z,18.57
2018-11-11T03:55:09.323Z,18.53
2018-11-11T03:57:38.295Z,19.97
2018-11-11T04:00:22.991Z,19.20
2018-11-11T04:02:54.701Z,19.53
2018-11-11T04:05:23.607Z,19.40
2018-11-11T04:07:52.453Z,20.57
2018-11-11T04:10:21.409Z,20.50
2018-11-11T04:12:50.224Z,16.87
2018-11-11T04:15:19.593Z,20.87
2018-11-11T04:17:48.527Z,19.40
2018-11-11T04:20:18.719Z,20.33
2018-11-11T04:22:47.623Z,24.10
2018-11-11T04:25:17.432Z,18.53
2018-11-11T04:27:46.295Z,20.60
2018-11-11T04:30:15.510Z,19.60
2018-11-11T04:32:44.382Z,22.03
2018-11-11T04:35:13.499Z,20.30
2018-11-11T04:37:42.371Z,17.47
2018-11-11T04:40:12.404Z,16.40
2018-11-11T04:42:41.263Z,18.70
2018-11-11T04:45:14.219Z,19.73
2018-11-11T04:47:43.899Z,16.83
2018-11-11T04:50:14.812Z,17.67
2018-11-11T04:52:44.148Z,15.67
2018-11-11T04:55:13.038Z,15.67
2018-11-11T04:57:42.310Z,15.33
2018-11-11T05:00:14.277Z,15.53
2018-11-11T05:02:43.546Z,15.90
2018-11-11T05:05:13.198Z,19.47
2018-11-11T05:07:42.085Z,16.60
2018-11-11T05:10:11.481Z,14.40
2018-11-11T05:12:40.350Z,15.57
2018-11-11T05:15:10.806Z,17.10
2018-11-11T05:17:39.767Z,16.97
2018-11-11T05:20:10.913Z,15.60
2018-11-11T05:22:40.030Z,16.00
2018-11-11T05:25:11.187Z,12.70
2018-11-11T05:27:40.495Z,16.73
2018-11-11T05:30:10.540Z,14.30
2018-11-11T05:32:39.579Z,17.07
2018-11-11T05:35:09.613Z,13.97
2018-11-11T05:37:38.810Z,15.33
2018-11-11T05:40:08.823Z,14.47
2018-11-11T05:42:38.027Z,14.70
2018-11-11T05:45:08.327Z,13.80
2018-11-11T05:47:37.446Z,12.67
2018-11-11T05:50:08.898Z,15.13
2018-11-11T05:52:37.758Z,13.47
2018-11-11T05:55:07.179Z,13.37
2018-11-11T05:57:36.180Z,16.83
2018-11-11T06:00:12.095Z,16.27
2018-11-11T06:02:43.321Z,15.43
2018-11-11T06:05:13.284Z,14.50
2018-11-11T06:07:42.176Z,14.83
2018-11-11T06:10:12.527Z,13.33
2018-11-11T06:12:42.012Z,14.17
2018-11-11T06:15:12.035Z,14.57
2018-11-11T06:17:40.899Z,13.47
2018-11-11T06:20:14.050Z,13.73
2018-11-11T06:22:42.911Z,14.80
2018-11-11T06:25:12.007Z,13.60
2018-11-11T06:27:40.969Z,15.37
2018-11-11T06:30:10.607Z,12.43
2018-11-11T06:32:39.471Z,13.33
2018-11-11T06:35:08.451Z,15.30
2018-11-11T06:37:37.623Z,17.80
2018-11-11T06:40:09.071Z,18.00
2018-11-11T06:42:38.255Z,13.57
2018-11-11T06:45:08.967Z,14.63
2018-11-11T06:47:38.275Z,14.00
2018-11-11T06:50:09.463Z,12.20
2018-11-11T06:52:39.323Z,14.17
2018-11-11T06:55:08.430Z,13.60
2018-11-11T06:57:37.940Z,13.17
2018-11-11T07:00:13.012Z,14.70
2018-11-11T07:03:55.987Z,12.60
2018-11-11T07:07:28.363Z,14.43
2018-11-11T07:09:57.463Z,15.23
2018-11-11T07:12:26.687Z,17.23
2018-11-11T07:14:55.725Z,17.13
2018-11-11T07:17:24.844Z,17.90
2018-11-11T07:19:53.720Z,16.33
2018-11-11T07:22:22.558Z,16.40
2018-11-11T07:24:51.527Z,16.60
2018-11-11T07:27:20.378Z,18.23
2018-11-11T07:29:49.218Z,17.50
2018-11-11T07:32:18.087Z,15.90
2018-11-11T07:34:46.920Z,15.50
2018-11-11T07:37:16.328Z,14.57
2018-11-11T07:39:45.361Z,12.40
2018-11-11T07:42:14.373Z,12.27
2018-11-11T07:44:44.482Z,15.53
2018-11-11T07:47:13.920Z,12.63
2018-11-11T07:49:43.175Z,15.40
2018-11-11T07:52:12.944Z,10.90
2018-11-11T07:54:42.129Z,12.30
2018-11-11T07:57:11.108Z,12.70
2018-11-11T07:59:40.138Z,10.83
2018-11-11T08:02:09.860Z,10.60
2018-11-11T08:04:38.748Z,10.43
2018-11-11T08:07:07.935Z,13.87
2018-11-11T08:09:37.785Z,9.30
2018-11-11T08:12:06.806Z,10.40
2018-11-11T08:14:35.735Z,9.80
2018-11-11T08:17:04.702Z,9.73
2018-11-11T08:19:33.627Z,10.83
2018-11-11T08:22:02.500Z,10.90
2018-11-11T08:24:31.660Z,10.10
2018-11-11T08:27:00.808Z,9.33
2018-11-11T08:29:29.719Z,11.00
2018-11-11T08:31:58.925Z,10.47
2018-11-11T08:34:27.856Z,11.40
2018-11-11T08:36:57.179Z,9.77
2018-11-11T08:39:26.424Z,8.53
2018-11-11T08:41:55.488Z,11.17
2018-11-11T08:44:25.470Z,9.80
2018-11-11T08:46:54.746Z,9.80
2018-11-11T08:49:23.890Z,8.07
2018-11-11T08:51:54.076Z,10.13
2018-11-11T08:54:23.472Z,9.47
2018-11-11T08:56:52.435Z,13.50
2018-11-11T08:59:29.502Z,8.73
2018-11-11T09:01:58.438Z,9.53
2018-11-11T09:04:27.938Z,10.83
2018-11-11T09:06:57.243Z,8.20
2018-11-11T09:09:26.631Z,12.60
2018-11-11T09:11:55.814Z,12.13
2018-11-11T09:14:24.881Z,9.70
2018-11-11T09:16:53.840Z,9.20
2018-11-11T09:19:23.174Z,12.77
2018-11-11T09:21:53.055Z,9.50
2018-11-11T09:24:22.210Z,9.87
2018-11-11T09:26:51.464Z,8.80
2018-11-11T09:29:20.482Z,7.40
2018-11-11T09:31:49.362Z,9.07
2018-11-11T09:34:18.495Z,8.10
2018-11-11T09:36:47.875Z,8.33
2018-11-11T09:39:16.988Z,8.90
2018-11-11T09:41:45.899Z,7.80
2018-11-11T09:44:15.158Z,7.83
2018-11-11T09:46:44.555Z,7.70
2018-11-11T09:49:13.692Z,7.63
2018-11-11T09:51:43.947Z,10.07
2018-11-11T09:54:13.057Z,7.57
2018-11-11T09:56:42.013Z,8.70
2018-11-11T09:59:13.137Z,6.77
2018-11-11T10:01:43.008Z,7.40
2018-11-11T10:04:14.327Z,9.10
2018-11-11T10:06:55.759Z,8.27
2018-11-11T10:11:35.413Z,7.23
2018-11-11T10:14:11.211Z,6.73
2018-11-11T10:16:49.836Z,6.97
2018-11-11T10:19:29.207Z,7.37
2018-11-11T10:22:04.963Z,7.27
2018-11-11T10:24:39.091Z,10.60
2018-11-11T10:27:25.103Z,5.57
2018-11-11T10:30:14.639Z,6.10
2018-11-11T10:33:09.404Z,6.33
2018-11-11T10:35:43.704Z,7.10
2018-11-11T10:38:20.299Z,5.00
2018-11-11T10:41:06.175Z,4.93
2018-11-11T10:43:42.232Z,6.30
2018-11-11T10:46:18.282Z,6.73
2018-11-11T10:49:03.971Z,5.50
2018-11-11T10:51:33.164Z,4.83
2018-11-11T10:54:02.565Z,4.27
2018-11-11T10:56:31.821Z,6.23
2018-11-11T10:59:00.892Z,4.87
2018-11-11T11:01:35.647Z,5.20
2018-11-11T11:04:04.941Z,4.90
2018-11-11T11:06:39.720Z,8.70
2018-11-11T11:09:12.220Z,5.43
2018-11-11T11:11:42.264Z,5.10
2018-11-11T11:14:11.602Z,4.80
2018-11-11T11:16:40.504Z,5.10
2018-11-11T11:19:09.671Z,4.63
2018-11-11T11:21:38.936Z,6.47
2018-11-11T11:24:08.046Z,5.30
2018-11-11T11:26:37.140Z,5.30
2018-11-11T11:29:06.178Z,4.40
2018-11-11T11:31:35.523Z,5.33
2018-11-11T11:34:04.546Z,5.20
2018-11-11T11:36:33.803Z,5.93
2018-11-11T11:39:04.003Z,5.97
2018-11-11T11:41:33.185Z,5.53
2018-11-11T11:44:02.945Z,5.63
2018-11-11T11:46:31.924Z,8.60
2018-11-11T11:49:01.157Z,5.40
2018-11-11T11:51:30.363Z,6.13
2018-11-11T11:53:59.600Z,4.97
2018-11-11T11:56:29.412Z,7.00
2018-11-11T11:58:58.283Z,5.50
2018-11-11T12:01:27.173Z,4.40
2018-11-11T12:03:56.069Z,4.57
2018-11-11T12:06:24.954Z,4.93
2018-11-11T12:08:53.867Z,4.37
2018-11-11T12:11:22.711Z,4.77
2018-11-11T12:13:51.587Z,6.23
2018-11-11T12:16:20.825Z,4.33
2018-11-11T12:18:49.674Z,4.60
2018-11-11T12:21:19.347Z,5.07
2018-11-11T12:23:48.539Z,5.13
2018-11-11T12:26:17.447Z,4.50
2018-11-11T12:28:46.388Z,3.97
2018-11-11T12:31:15.252Z,4.07
2018-11-11T12:33:44.111Z,4.33
2018-11-11T12:36:13.096Z,4.67
2018-11-11T12:38:41.940Z,6.13
2018-11-11T12:41:10.810Z,4.00
2018-11-11T12:43:39.648Z,3.87
2018-11-11T12:46:08.963Z,5.40
2018-11-11T12:48:37.895Z,3.90
2018-11-11T12:51:07.143Z,4.50
2018-11-11T12:53:35.963Z,4.57
2018-11-11T12:56:05.195Z,8.00
2018-11-11T12:58:33.994Z,3.53
2018-11-11T13:01:02.895Z,4.80
2018-11-11T13:03:31.724Z,3.97
2018-11-11T13:06:00.663Z,4.83
2018-11-11T13:08:29.504Z,3.83
2018-11-11T13:10:58.319Z,4.60
2018-11-11T13:13:27.167Z,8.63
2018-11-11T13:15:56.014Z,4.10
2018-11-11T13:18:24.875Z,5.20
2018-11-11T13:20:53.709Z,3.53
2018-11-11T13:23:22.559Z,2.90
2018-11-11T13:25:51.519Z,3.73
2018-11-11T13:28:20.351Z,3.63
2018-11-11T13:30:49.184Z,3.70
2018-11-11T13:33:18.037Z,3.37
2018-11-11T13:35:47.007Z,2.70
2018-11-11T13:38:15.932Z,4.00
2018-11-11T13:40:44.700Z,3.30
2018-11-11T13:43:13.604Z,4.77
2018-11-11T13:45:42.625Z,4.43
2018-11-11T13:48:11.515Z,2.87
2018-11-11T13:50:40.430Z,2.80
2018-11-11T13:53:09.305Z,11.63
2018-11-11T13:55:38.181Z,2.63
2018-11-11T13:58:07.023Z,3.83
2018-11-11T14:00:35.854Z,2.50
2018-11-11T14:03:04.953Z,3.17
2018-11-11T14:05:33.891Z,2.70
2018-11-11T14:08:02.840Z,4.07
2018-11-11T14:10:31.598Z,3.50
2018-11-11T14:13:00.467Z,3.90
2018-11-11T14:15:29.334Z,3.07
2018-11-11T14:17:58.221Z,5.30
2018-11-11T14:20:27.060Z,3.83
2018-11-11T14:22:56.440Z,4.80
2018-11-11T14:25:28.845Z,6.23
2018-11-11T14:27:57.794Z,5.70
2018-11-11T14:30:27.512Z,6.70
2018-11-11T14:32:57.303Z,4.83
2018-11-11T14:35:26.150Z,4.80
2018-11-11T14:37:55.069Z,4.00
2018-11-11T14:40:25.269Z,4.43
2018-11-11T14:42:54.196Z,3.60
2018-11-11T14:45:23.518Z,3.30
2018-11-11T14:47:53.495Z,4.33
2018-11-11T14:50:23.200Z,3.67
2018-11-11T14:52:52.175Z,2.50
2018-11-11T14:55:22.341Z,3.07
2018-11-11T14:57:51.309Z,4.00
2018-11-11T15:00:29.748Z,3.70
2018-11-11T15:03:07.948Z,7.27
2018-11-11T15:05:36.851Z,4.07
2018-11-11T15:08:06.062Z,3.77
2018-11-11T15:10:34.920Z,2.37
2018-11-11T15:13:03.898Z,2.87
2018-11-11T15:15:32.853Z,4.20
2018-11-11T15:18:02.115Z,3.47
2018-11-11T15:20:31.357Z,4.33
2018-11-11T15:23:00.116Z,4.63
2018-11-11T15:25:29.891Z,5.93
2018-11-11T15:27:58.754Z,4.23
2018-11-11T15:30:29.002Z,5.23
2018-11-11T15:32:58.637Z,3.80
2018-11-11T15:35:27.900Z,5.07
2018-11-11T15:37:57.766Z,7.33
2018-11-11T15:40:28.100Z,6.50
2018-11-11T15:42:57.895Z,8.07
2018-11-11T15:45:28.560Z,9.00
2018-11-11T15:47:57.723Z,10.87
2018-11-11T15:50:28.055Z,11.53
2018-11-11T15:53:01.658Z,11.23
2018-11-11T15:55:31.939Z,10.53
2018-11-11T15:58:01.051Z,11.10
2018-11-11T16:00:34.788Z,11.13
2018-11-11T16:03:04.011Z,9.90
2018-11-11T16:05:33.923Z,10.97
2018-11-11T16:08:03.046Z,9.90
2018-11-11T16:10:32.795Z,9.60
2018-11-11T16:13:01.656Z,11.73
2018-11-11T16:15:35.032Z,11.03
2018-11-11T16:18:06.026Z,12.00
2018-11-11T16:20:35.508Z,8.90
2018-11-11T16:23:06.037Z,9.73
2018-11-11T16:25:35.831Z,11.47
2018-11-11T16:28:05.227Z,11.83
2018-11-11T16:30:35.328Z,8.80
2018-11-11T16:33:16.464Z,10.17
2018-11-11T16:35:45.741Z,10.07
2018-11-11T16:38:14.582Z,8.33
2018-11-11T16:40:43.501Z,8.10
2018-11-11T16:43:12.767Z,14.50
2018-11-11T16:45:42.871Z,9.60
2018-11-11T16:48:12.081Z,12.60
2018-11-11T16:50:41.030Z,8.63
2018-11-11T16:53:10.040Z,9.43
2018-11-11T16:55:39.060Z,9.60
2018-11-11T16:58:07.914Z,9.53
2018-11-11T17:00:37.532Z,8.77
2018-11-11T17:03:07.971Z,8.97
2018-11-11T17:05:37.710Z,11.00
2018-11-11T17:08:06.816Z,8.03
2018-11-11T17:10:36.692Z,8.83
2018-11-11T17:13:08.324Z,7.87
2018-11-11T17:15:37.235Z,7.30
2018-11-11T17:18:06.224Z,8.97
2018-11-11T17:20:35.134Z,6.70
2018-11-11T17:23:06.909Z,8.70
2018-11-11T17:25:36.489Z,10.27
2018-11-11T17:28:05.988Z,9.37
2018-11-11T17:30:35.643Z,8.53
2018-11-11T17:33:05.735Z,10.00
2018-11-11T17:35:34.539Z,8.70
2018-11-11T17:38:03.395Z,8.67
2018-11-11T17:40:32.362Z,11.83
2018-11-11T17:43:02.096Z,10.50
2018-11-11T17:45:30.962Z,9.87
2018-11-11T17:47:59.793Z,15.47
2018-11-11T17:50:30.044Z,9.90
2018-11-11T17:52:59.821Z,9.60
2018-11-11T17:55:29.256Z,10.50
2018-11-11T17:57:58.151Z,10.00
2018-11-11T18:00:31.902Z,10.57
2018-11-11T18:03:02.041Z,9.93
2018-11-11T18:05:31.992Z,9.80
2018-11-11T18:08:00.976Z,10.67
2018-11-11T18:10:29.900Z,10.20
2018-11-11T18:12:58.781Z,10.00
2018-11-11T18:15:29.444Z,10.07
2018-11-11T18:17:58.360Z,10.60
2018-11-11T18:20:28.621Z,9.73
2018-11-11T18:22:58.888Z,9.20
2018-11-11T18:25:27.861Z,10.03
2018-11-11T18:27:56.985Z,11.27
2018-11-11T18:30:28.187Z,9.90
2018-11-11T18:32:57.143Z,9.93
2018-11-11T18:35:26.339Z,9.40
2018-11-11T18:37:55.660Z,9.27
2018-11-11T18:40:26.155Z,11.33
2018-11-11T18:42:55.279Z,11.20
2018-11-11T18:45:25.889Z,11.03
2018-11-11T18:47:54.773Z,10.77
2018-11-11T18:50:25.100Z,9.90
2018-11-11T18:52:53.932Z,9.90
2018-11-11T18:55:22.780Z,10.27
2018-11-11T18:57:51.750Z,10.37
2018-11-11T19:00:30.143Z,10.97
2018-11-11T19:02:59.080Z,12.00
2018-11-11T19:05:28.466Z,10.37
2018-11-11T19:07:57.747Z,8.83
2018-11-11T19:10:28.057Z,8.40
2018-11-11T19:12:58.618Z,6.70
2018-11-11T19:15:27.535Z,9.87
2018-11-11T19:17:56.960Z,9.47
2018-11-11T19:20:26.323Z,9.03
2018-11-11T19:22:55.321Z,10.43
2018-11-11T19:25:25.872Z,11.50
2018-11-11T19:27:56.236Z,14.67
2018-11-11T19:30:26.373Z,14.53
2018-11-11T19:32:55.271Z,8.67
2018-11-11T19:35:24.187Z,10.57
2018-11-11T19:37:54.183Z,9.60
2018-11-11T19:40:24.827Z,10.50
2018-11-11T19:42:55.242Z,9.27
2018-11-11T19:45:25.366Z,8.60
2018-11-11T19:47:54.684Z,9.70
2018-11-11T19:50:25.200Z,13.30
2018-11-11T19:52:55.529Z,11.63
2018-11-11T19:55:24.687Z,10.50
2018-11-11T19:57:53.935Z,11.30
2018-11-11T20:00:31.943Z,11.27
2018-11-11T20:03:02.731Z,10.53
2018-11-11T20:05:32.029Z,10.47
2018-11-11T20:08:01.589Z,10.13
2018-11-11T20:10:31.165Z,9.80
2018-11-11T20:13:00.943Z,9.13
2018-11-11T20:15:31.779Z,9.93
2018-11-11T20:18:01.069Z,10.60
2018-11-11T20:20:33.497Z,9.03
2018-11-11T20:23:02.380Z,8.93
2018-11-11T20:25:31.815Z,10.83
2018-11-11T20:28:01.023Z,9.40
2018-11-11T20:30:31.681Z,10.00
2018-11-11T20:33:00.584Z,9.53
2018-11-11T20:35:30.716Z,10.63
2018-11-11T20:37:59.569Z,10.57
2018-11-11T20:40:28.791Z,12.70
2018-11-11T20:42:58.223Z,10.10
2018-11-11T20:45:28.727Z,9.90
2018-11-11T20:47:58.073Z,10.23
2018-11-11T20:50:28.295Z,10.67
2018-11-11T20:52:59.303Z,8.93
2018-11-11T20:55:28.147Z,9.03
2018-11-11T20:57:57.640Z,9.90
2018-11-11T21:00:35.214Z,9.57
2018-11-11T21:03:04.511Z,10.43
2018-11-11T21:05:33.483Z,10.40
2018-11-11T21:08:02.369Z,9.57
2018-11-11T21:10:31.278Z,10.83
2018-11-11T21:13:00.471Z,10.53
2018-11-11T21:15:30.268Z,11.53
2018-11-11T21:17:59.128Z,11.93
2018-11-11T21:20:30.095Z,13.50
2018-11-11T21:22:58.922Z,11.93
2018-11-11T21:25:27.823Z,13.87
2018-11-11T21:27:56.731Z,13.00
2018-11-11T21:30:28.620Z,12.73
2018-11-11T21:32:57.574Z,12.83
2018-11-11T21:35:26.464Z,13.63
2018-11-11T21:37:55.474Z,11.43
2018-11-11T21:40:25.323Z,14.80
2018-11-11T21:42:54.730Z,10.53
2018-11-11T21:45:24.640Z,12.07
2018-11-11T21:47:53.542Z,10.10
2018-11-11T21:50:23.639Z,11.47
2018-11-11T21:53:55.741Z,9.83
2018-11-11T21:56:24.627Z,11.27
2018-11-11T21:58:53.542Z,12.40
2018-11-11T22:01:29.355Z,13.53
2018-11-11T22:03:58.223Z,9.50
2018-11-11T22:06:27.115Z,9.80
2018-11-11T22:08:55.982Z,10.50
2018-11-11T22:11:24.827Z,11.97
2018-11-11T22:13:53.726Z,12.70
2018-11-11T22:16:22.666Z,11.90
2018-11-11T22:18:51.535Z,12.00
2018-11-11T22:21:20.367Z,10.87
2018-11-11T22:23:49.195Z,11.10
2018-11-11T22:26:18.131Z,11.47
2018-11-11T22:28:46.969Z,11.77
2018-11-11T22:31:15.808Z,14.37
2018-11-11T22:33:44.670Z,11.30
2018-11-11T22:36:13.594Z,12.30
2018-11-11T22:38:42.426Z,12.00
2018-11-11T22:41:11.342Z,10.73
2018-11-11T22:43:40.192Z,11.80
2018-11-11T22:46:09.063Z,11.73
2018-11-11T22:48:38.047Z,10.07
2018-11-11T22:51:06.899Z,12.13
2018-11-11T22:53:35.747Z,10.97
2018-11-11T22:56:04.688Z,11.20
2018-11-11T22:58:33.571Z,11.70
2018-11-11T23:01:08.235Z,10.40
2018-11-11T23:03:37.058Z,10.63
2018-11-11T23:06:05.915Z,10.73
2018-11-11T23:08:34.788Z,11.47
2018-11-11T23:11:03.659Z,12.10
2018-11-11T23:13:32.551Z,10.27
2018-11-11T23:16:01.497Z,11.47
2018-11-11T23:18:31.287Z,12.20
2018-11-11T23:21:00.151Z,11.73
2018-11-11T23:23:29.044Z,11.90
2018-11-11T23:25:57.971Z,10.90
2018-11-11T23:28:26.818Z,9.37
2018-11-11T23:30:55.674Z,10.33
2018-11-11T23:33:24.519Z,10.83
2018-11-11T23:35:53.444Z,10.60
2018-11-11T23:38:22.266Z,10.60
2018-11-11T23:40:51.127Z,10.67
2018-11-11T23:43:19.946Z,11.40
2018-11-11T23:45:48.887Z,10.23
2018-11-11T23:48:17.736Z,10.20
2018-11-11T23:50:46.607Z,10.33
2018-11-11T23:53:15.433Z,9.77
2018-11-11T23:55:44.371Z,9.73
2018-11-11T23:58:13.200Z,10.27
